Time;durP1;ratioP1;P1;durP2;ratioP2;P2;SDS_P1;SDS_P2;PMS_P1;PMS_P2;Temp;Humidity;BMP_temperature;BMP_pressure;BME280_temperature;BME280_humidity;BME280_pressure;Samples;Min_cycle;Max_cycle;Signal;HPM_P1;HPM_P2
2023/04/08 00:01:10;;;;;;;12.13;9.10;;;5.30;99.90;;;;;;4980691;28;20049;-85
2023/04/08 00:03:36;;;;;;;12.87;9.63;;;5.30;99.90;;;;;;5016543;28;20049;-86
2023/04/08 00:06:03;;;;;;;14.97;10.13;;;5.30;99.90;;;;;;5015678;28;20489;-85
2023/04/08 00:08:29;;;;;;;13.17;9.03;;;5.30;99.90;;;;;;4973662;28;20124;-85
2023/04/08 00:10:55;;;;;;;12.73;9.30;;;5.20;99.90;;;;;;5004041;28;20531;-85
2023/04/08 00:13:21;;;;;;;13.97;9.83;;;5.20;99.90;;;;;;4972818;28;20038;-85
2023/04/08 00:15:47;;;;;;;14.10;9.53;;;5.20;99.90;;;;;;4969149;28;20044;-85
2023/04/08 00:18:14;;;;;;;13.10;10.17;;;5.10;99.90;;;;;;4986188;28;20099;-85
2023/04/08 00:20:41;;;;;;;14.83;10.03;;;5.10;99.90;;;;;;5008845;28;20042;-85
2023/04/08 00:23:07;;;;;;;15.87;10.63;;;5.10;99.90;;;;;;5008692;28;20038;-85
2023/04/08 00:25:32;;;;;;;13.27;10.00;;;5.00;99.90;;;;;;5001705;28;20053;-85
2023/04/08 00:27:58;;;;;;;15.47;11.00;;;5.00;99.90;;;;;;4982891;28;20261;-85
2023/04/08 00:30:26;;;;;;;15.03;10.23;;;4.90;99.90;;;;;;5015649;28;20046;-86
2023/04/08 00:32:51;;;;;;;12.57;10.10;;;4.90;99.90;;;;;;4974605;28;20275;-85
2023/04/08 00:35:17;;;;;;;14.90;10.47;;;4.90;99.90;;;;;;5010156;28;20112;-85
2023/04/08 00:37:43;;;;;;;13.87;10.60;;;4.80;99.90;;;;;;4995605;28;20033;-86
2023/04/08 00:40:09;;;;;;;15.53;10.57;;;4.70;99.90;;;;;;4975341;28;20050;-85
2023/04/08 00:42:34;;;;;;;14.87;10.77;;;4.70;99.90;;;;;;4993325;28;20120;-86
2023/04/08 00:45:00;;;;;;;15.07;10.67;;;4.70;99.90;;;;;;4975980;28;20044;-86
2023/04/08 00:47:26;;;;;;;16.50;11.13;;;4.60;99.90;;;;;;4982984;28;20435;-85
2023/04/08 00:49:52;;;;;;;13.37;10.50;;;4.60;99.90;;;;;;4998661;28;20083;-86
2023/04/08 00:52:17;;;;;;;16.87;11.93;;;4.60;99.90;;;;;;4982288;28;20037;-85
2023/04/08 00:54:43;;;;;;;15.33;11.37;;;4.60;99.90;;;;;;5003934;28;20093;-85
2023/04/08 00:57:09;;;;;;;16.03;11.77;;;4.50;99.90;;;;;;4998044;28;20054;-85
2023/04/08 00:59:35;;;;;;;18.27;11.73;;;4.50;99.90;;;;;;4985883;28;20152;-86
2023/04/08 01:02:22;;;;;;;15.83;11.73;;;4.50;99.90;;;;;;5002313;28;20041;-85
2023/04/08 01:05:07;;;;;;;18.50;12.53;;;4.40;99.90;;;;;;4981931;28;20083;-86
2023/04/08 01:07:36;;;;;;;16.50;11.93;;;4.40;99.90;;;;;;4998423;28;20040;-85
2023/04/08 01:10:06;;;;;;;18.20;12.70;;;4.30;99.90;;;;;;5010139;28;20811;-85
2023/04/08 01:12:39;;;;;;;16.80;13.00;;;4.30;99.90;;;;;;5008399;28;20045;-86
2023/04/08 01:15:07;;;;;;;17.37;12.37;;;4.20;99.90;;;;;;4996880;28;20047;-86
2023/04/08 01:17:36;;;;;;;19.60;12.87;;;4.20;99.90;;;;;;4987481;28;20036;-85
2023/04/08 01:20:03;;;;;;;16.23;12.70;;;4.20;99.90;;;;;;4985834;28;20377;-84
2023/04/08 01:22:48;;;;;;;15.17;12.30;;;4.20;99.90;;;;;;4995801;28;20138;-86
2023/04/08 01:25:21;;;;;;;18.53;12.83;;;4.10;99.90;;;;;;5012016;28;20045;-85
2023/04/08 01:27:48;;;;;;;18.53;13.83;;;4.10;99.90;;;;;;5003885;28;20061;-86
2023/04/08 01:30:17;;;;;;;19.67;12.83;;;4.00;99.90;;;;;;5005943;28;20497;-86
2023/04/08 01:32:44;;;;;;;17.10;13.37;;;4.00;99.90;;;;;;5014558;28;20041;-86
2023/04/08 01:35:10;;;;;;;19.30;14.07;;;4.00;99.90;;;;;;5000694;28;20053;-86
2023/04/08 01:37:38;;;;;;;20.67;14.20;;;4.00;99.90;;;;;;4996640;28;20034;-85
2023/04/08 01:40:06;;;;;;;21.93;14.37;;;4.00;99.90;;;;;;5011051;28;20041;-86
2023/04/08 01:42:34;;;;;;;17.47;14.00;;;3.90;99.90;;;;;;5012843;28;20182;-85
2023/04/08 01:45:01;;;;;;;19.07;14.17;;;3.90;99.90;;;;;;4988738;28;20050;-85
2023/04/08 01:47:28;;;;;;;16.90;14.10;;;3.90;99.90;;;;;;5003838;28;20056;-85
2023/04/08 01:49:55;;;;;;;20.27;14.63;;;3.90;99.90;;;;;;4982425;28;20041;-86
2023/04/08 01:52:22;;;;;;;22.53;14.80;;;3.90;99.90;;;;;;4980485;28;20045;-85
2023/04/08 01:54:48;;;;;;;23.53;15.73;;;3.90;99.90;;;;;;5005240;28;20501;-85
2023/04/08 01:57:21;;;;;;;23.57;15.73;;;3.80;99.90;;;;;;4986292;28;20408;-86
2023/04/08 01:59:51;;;;;;;20.73;15.77;;;3.80;99.90;;;;;;4992603;28;20116;-85
2023/04/08 02:02:19;;;;;;;21.40;15.43;;;3.80;99.90;;;;;;4998364;28;20046;-85
2023/04/08 02:04:45;;;;;;;20.77;15.93;;;3.80;99.90;;;;;;4967910;28;20034;-85
2023/04/08 02:07:11;;;;;;;22.93;15.80;;;3.70;99.90;;;;;;4978412;28;20048;-85
2023/04/08 02:09:37;;;;;;;22.40;16.00;;;3.80;99.90;;;;;;4983892;28;20033;-85
2023/04/08 02:12:03;;;;;;;22.83;16.00;;;3.70;99.90;;;;;;5004201;28;20041;-85
2023/04/08 02:14:29;;;;;;;21.67;16.57;;;3.70;99.90;;;;;;4993611;28;20588;-85
2023/04/08 02:17:16;;;;;;;21.60;15.70;;;3.70;99.90;;;;;;4983727;28;20393;-86
2023/04/08 02:20:04;;;;;;;22.07;16.33;;;3.70;99.90;;;;;;5001615;28;20041;-85
2023/04/08 02:22:38;;;;;;;23.50;16.37;;;3.60;99.90;;;;;;4997395;28;20485;-86
2023/04/08 02:25:09;;;;;;;21.87;16.03;;;3.60;99.90;;;;;;5012901;28;20120;-85
2023/04/08 02:27:36;;;;;;;22.50;16.60;;;3.50;99.90;;;;;;4999761;28;20127;-85
2023/04/08 02:30:07;;;;;;;20.83;16.30;;;3.50;99.90;;;;;;4985483;28;20061;-85
2023/04/08 02:32:34;;;;;;;23.40;17.03;;;3.50;99.90;;;;;;4971381;28;20050;-85
2023/04/08 02:35:04;;;;;;;22.43;16.83;;;3.50;99.90;;;;;;4980499;28;20122;-85
2023/04/08 02:37:33;;;;;;;21.70;15.80;;;3.50;99.90;;;;;;4985486;28;20041;-85
2023/04/08 02:39:59;;;;;;;25.87;17.57;;;3.50;99.90;;;;;;4983327;28;20041;-85
2023/04/08 02:42:25;;;;;;;25.40;17.73;;;3.40;99.90;;;;;;5011706;28;20051;-85
2023/04/08 02:44:51;;;;;;;26.47;17.93;;;3.50;99.90;;;;;;4985579;28;20033;-85
2023/04/08 02:47:16;;;;;;;27.03;18.10;;;3.40;99.90;;;;;;4993364;28;20041;-85
2023/04/08 02:49:42;;;;;;;26.33;18.60;;;3.40;99.90;;;;;;5000949;28;20052;-86
2023/04/08 02:52:08;;;;;;;24.67;18.93;;;3.40;99.90;;;;;;4984446;28;20503;-85
2023/04/08 02:54:34;;;;;;;26.37;19.73;;;3.40;99.90;;;;;;5014327;28;20049;-85
2023/04/08 02:57:00;;;;;;;26.33;19.27;;;3.40;99.90;;;;;;5000693;28;20038;-85
2023/04/08 02:59:25;;;;;;;26.87;19.43;;;3.40;99.90;;;;;;4984271;28;20037;-85
2023/04/08 03:01:51;;;;;;;28.90;19.17;;;3.40;99.90;;;;;;5019908;28;20037;-84
2023/04/08 03:04:16;;;;;;;28.93;19.20;;;3.40;99.90;;;;;;4995240;28;20049;-85
2023/04/08 03:06:42;;;;;;;27.13;18.73;;;3.40;99.90;;;;;;4983442;28;20033;-85
2023/04/08 03:09:08;;;;;;;27.93;19.23;;;3.40;99.90;;;;;;5000683;28;20041;-86
2023/04/08 03:11:34;;;;;;;27.90;19.50;;;3.40;99.90;;;;;;5000269;28;20049;-86
2023/04/08 03:14:00;;;;;;;28.37;20.20;;;3.40;99.90;;;;;;4977205;28;20061;-85
2023/04/08 03:16:26;;;;;;;33.93;21.83;;;3.40;99.90;;;;;;4987796;28;20048;-85
2023/04/08 03:18:51;;;;;;;30.90;20.93;;;3.30;99.90;;;;;;4984300;28;20030;-85
2023/04/08 03:21:17;;;;;;;31.40;21.17;;;3.30;99.90;;;;;;4998763;28;20045;-86
2023/04/08 03:23:43;;;;;;;30.70;20.80;;;3.40;99.90;;;;;;5008384;28;20493;-86
2023/04/08 03:26:09;;;;;;;32.37;21.00;;;3.30;99.90;;;;;;4984509;28;20500;-85
2023/04/08 03:28:35;;;;;;;29.53;20.20;;;3.40;99.90;;;;;;5007109;28;20054;-85
2023/04/08 03:31:05;;;;;;;34.47;21.60;;;3.40;99.90;;;;;;5003025;28;20042;-86
2023/04/08 03:33:31;;;;;;;33.97;22.07;;;3.40;99.90;;;;;;5012109;28;20033;-85
2023/04/08 03:35:56;;;;;;;33.67;21.73;;;3.30;99.90;;;;;;5009826;28;20046;-85
2023/04/08 03:38:22;;;;;;;30.93;21.20;;;3.40;99.90;;;;;;4963648;28;20266;-85
2023/04/08 03:40:48;;;;;;;33.40;21.93;;;3.30;99.90;;;;;;4989614;28;20404;-86
2023/04/08 03:43:14;;;;;;;34.90;21.73;;;3.30;99.90;;;;;;5006656;28;20052;-86
2023/04/08 03:45:39;;;;;;;35.90;23.07;;;3.30;99.90;;;;;;4997250;28;20041;-84
2023/04/08 03:48:05;;;;;;;32.63;21.47;;;3.30;99.90;;;;;;5010050;28;20116;-85
2023/04/08 03:50:31;;;;;;;34.30;22.33;;;3.30;99.90;;;;;;5015640;28;20129;-85
2023/04/08 03:52:57;;;;;;;36.57;22.77;;;3.30;99.90;;;;;;4968293;28;20449;-86
2023/04/08 03:55:22;;;;;;;32.90;21.30;;;3.30;99.90;;;;;;5009729;28;20049;-85
2023/04/08 03:57:48;;;;;;;38.90;23.87;;;3.30;99.90;;;;;;4977305;28;20440;-87
2023/04/08 04:00:14;;;;;;;35.37;22.80;;;3.30;99.90;;;;;;4981001;28;20042;-85
2023/04/08 04:02:40;;;;;;;35.07;23.33;;;3.30;99.90;;;;;;4987738;28;20050;-86
2023/04/08 04:05:06;;;;;;;35.60;22.70;;;3.40;99.90;;;;;;5016223;28;20048;-85
2023/04/08 04:07:32;;;;;;;38.40;23.40;;;3.40;99.90;;;;;;5007653;28;20088;-86
2023/04/08 04:09:58;;;;;;;35.40;23.13;;;3.40;99.90;;;;;;5001411;28;20073;-84
2023/04/08 04:12:23;;;;;;;36.77;22.30;;;3.40;99.90;;;;;;4995530;28;20490;-85
2023/04/08 04:14:49;;;;;;;34.10;22.80;;;3.40;99.90;;;;;;5009569;28;20044;-85
2023/04/08 04:17:15;;;;;;;33.67;21.33;;;3.40;99.90;;;;;;4999906;28;20038;-85
2023/04/08 04:19:41;;;;;;;35.30;22.63;;;3.40;99.90;;;;;;4994311;28;20091;-85
2023/04/08 04:22:06;;;;;;;36.67;22.33;;;3.40;99.90;;;;;;5014431;28;20087;-85
2023/04/08 04:24:32;;;;;;;35.00;22.70;;;3.40;99.90;;;;;;5000471;28;20048;-86
2023/04/08 04:26:58;;;;;;;34.80;22.97;;;3.40;99.90;;;;;;4996417;28;20389;-86
2023/04/08 04:29:24;;;;;;;33.87;22.33;;;3.40;99.90;;;;;;4995694;28;20041;-85
2023/04/08 04:31:49;;;;;;;33.13;22.97;;;3.30;99.90;;;;;;4975895;28;20034;-85
2023/04/08 04:34:16;;;;;;;39.30;24.83;;;3.40;99.90;;;;;;4989517;28;20456;-85
2023/04/08 04:36:42;;;;;;;39.43;23.63;;;3.40;99.90;;;;;;5013958;28;20121;-85
2023/04/08 04:39:10;;;;;;;36.50;23.10;;;3.40;99.90;;;;;;4984931;28;20394;-86
2023/04/08 04:41:39;;;;;;;37.10;23.73;;;3.40;99.90;;;;;;4991064;28;20046;-86
2023/04/08 04:44:05;;;;;;;40.77;23.40;;;3.40;99.90;;;;;;4985844;28;20121;-86
2023/04/08 04:46:31;;;;;;;36.70;24.13;;;3.40;99.90;;;;;;5016032;28;20046;-85
2023/04/08 04:48:57;;;;;;;38.40;23.73;;;3.40;99.90;;;;;;4973391;28;20566;-86
2023/04/08 04:51:22;;;;;;;35.90;24.00;;;3.40;99.90;;;;;;5013792;28;20049;-86
2023/04/08 04:53:48;;;;;;;38.37;23.50;;;3.40;99.90;;;;;;5003685;28;20404;-85
2023/04/08 04:56:14;;;;;;;40.57;25.30;;;3.40;99.90;;;;;;5000926;28;20120;-85
2023/04/08 04:58:41;;;;;;;37.63;23.33;;;3.40;99.90;;;;;;4974754;28;20034;-86
2023/04/08 05:01:06;;;;;;;38.07;23.63;;;3.40;99.90;;;;;;4991587;28;20065;-85
2023/04/08 05:03:32;;;;;;;40.77;24.90;;;3.40;99.90;;;;;;4982742;28;20056;-85
2023/04/08 05:05:58;;;;;;;43.33;25.73;;;3.50;99.90;;;;;;5001853;28;20036;-85
2023/04/08 05:08:24;;;;;;;39.70;24.63;;;3.50;99.90;;;;;;5006251;28;20510;-86
2023/04/08 05:10:50;;;;;;;42.70;25.67;;;3.50;99.90;;;;;;5014220;28;20041;-86
2023/04/08 05:13:17;;;;;;;41.57;25.40;;;3.60;99.90;;;;;;5015196;28;20048;-85
2023/04/08 05:15:44;;;;;;;47.27;26.73;;;3.70;99.90;;;;;;5006970;28;20048;-85
2023/04/08 05:18:10;;;;;;;42.20;25.73;;;3.70;99.90;;;;;;4979711;28;20041;-85
2023/04/08 05:20:36;;;;;;;43.40;26.10;;;3.80;99.90;;;;;;4982029;28;20045;-86
2023/04/08 05:23:02;;;;;;;43.20;26.57;;;3.80;99.90;;;;;;4982156;28;20114;-86
2023/04/08 05:25:28;;;;;;;41.50;25.27;;;3.90;99.90;;;;;;4998855;28;20132;-84
2023/04/08 05:27:54;;;;;;;43.37;26.00;;;3.80;99.90;;;;;;5003721;28;20064;-86
2023/04/08 05:30:21;;;;;;;43.53;26.40;;;3.90;99.90;;;;;;4991808;28;20053;-86
2023/04/08 05:32:46;;;;;;;45.60;26.60;;;3.90;99.90;;;;;;4997538;28;20051;-85
2023/04/08 05:35:12;;;;;;;41.67;25.67;;;4.00;99.90;;;;;;4991961;28;20034;-86
2023/04/08 05:37:38;;;;;;;43.90;25.77;;;4.10;99.90;;;;;;4987602;28;20041;-86
2023/04/08 05:40:04;;;;;;;40.07;25.30;;;4.10;99.90;;;;;;5010597;28;20046;-86
2023/04/08 05:42:31;;;;;;;39.13;24.90;;;4.10;99.90;;;;;;4986172;28;20485;-87
2023/04/08 05:44:56;;;;;;;39.87;24.87;;;4.20;99.90;;;;;;5015173;28;20051;-87
2023/04/08 05:47:22;;;;;;;41.57;24.77;;;4.20;99.90;;;;;;4982393;28;20049;-87
2023/04/08 05:49:48;;;;;;;40.30;24.30;;;4.30;99.90;;;;;;4990706;28;20048;-87
2023/04/08 05:52:13;;;;;;;36.47;23.70;;;4.30;99.90;;;;;;4978924;28;20052;-86
2023/04/08 05:54:42;;;;;;;41.03;23.73;;;4.40;99.90;;;;;;5006310;28;20053;-88
2023/04/08 05:57:08;;;;;;;38.57;24.27;;;4.40;99.90;;;;;;4999911;28;20440;-85
2023/04/08 05:59:34;;;;;;;40.80;25.57;;;4.50;99.90;;;;;;4992431;28;20033;-87
2023/04/08 06:01:59;;;;;;;39.60;24.13;;;4.50;99.90;;;;;;4980680;28;20478;-86
2023/04/08 06:04:25;;;;;;;41.73;24.63;;;4.60;99.90;;;;;;5011124;28;20038;-88
2023/04/08 06:06:51;;;;;;;41.53;23.53;;;4.60;99.90;;;;;;4957816;28;20772;-87
2023/04/08 06:09:16;;;;;;;39.50;23.77;;;4.70;99.90;;;;;;4965477;28;20047;-87
2023/04/08 06:11:42;;;;;;;41.20;24.63;;;4.80;99.90;;;;;;5032429;28;20128;-87
2023/04/08 06:14:08;;;;;;;40.07;23.77;;;4.90;99.90;;;;;;4999036;28;20041;-86
2023/04/08 06:16:34;;;;;;;41.00;24.07;;;5.00;99.90;;;;;;4966399;28;20426;-87
2023/04/08 06:18:59;;;;;;;38.20;22.90;;;5.00;99.90;;;;;;4975306;28;20041;-86
2023/04/08 06:21:25;;;;;;;39.87;23.07;;;5.10;99.90;;;;;;5012051;28;20121;-86
2023/04/08 06:23:51;;;;;;;39.87;23.33;;;5.20;99.90;;;;;;4994447;28;20116;-86
2023/04/08 06:26:16;;;;;;;38.07;22.77;;;5.30;99.90;;;;;;4984189;28;20079;-86
2023/04/08 06:28:42;;;;;;;37.77;22.33;;;5.30;99.90;;;;;;4986568;28;20042;-86
2023/04/08 06:31:08;;;;;;;35.23;22.47;;;5.40;99.90;;;;;;4997875;28;20045;-86
2023/04/08 06:33:33;;;;;;;35.53;22.33;;;5.40;99.90;;;;;;5001490;28;20042;-87
2023/04/08 06:36:04;;;;;;;35.93;21.30;;;5.40;99.90;;;;;;5004625;28;20049;-87
2023/04/08 06:38:30;;;;;;;33.90;21.90;;;5.40;99.90;;;;;;4989845;28;20472;-86
2023/04/08 06:41:04;;;;;;;34.73;22.23;;;5.40;99.90;;;;;;4984135;28;20468;-86
2023/04/08 06:43:30;;;;;;;36.83;21.63;;;5.50;99.90;;;;;;5002954;28;20038;-86
2023/04/08 06:45:56;;;;;;;35.60;21.13;;;5.60;99.90;;;;;;5004614;28;20551;-87
2023/04/08 06:48:27;;;;;;;32.53;20.70;;;5.70;99.90;;;;;;5004612;28;20562;-86
2023/04/08 06:50:55;;;;;;;32.87;21.17;;;5.70;99.90;;;;;;5012192;28;20137;-87
2023/04/08 06:53:23;;;;;;;31.23;20.87;;;5.80;99.90;;;;;;5005991;28;20553;-86
2023/04/08 06:55:48;;;;;;;29.73;20.57;;;5.80;99.90;;;;;;4987026;28;20057;-86
2023/04/08 06:58:14;;;;;;;30.77;20.23;;;5.90;99.90;;;;;;4999183;28;20046;-86
2023/04/08 07:00:41;;;;;;;30.23;20.33;;;5.90;99.90;;;;;;4989669;28;20401;-87
2023/04/08 07:03:07;;;;;;;33.30;21.67;;;5.90;99.90;;;;;;5004271;28;20041;-85
2023/04/08 07:05:35;;;;;;;29.90;19.83;;;5.90;99.90;;;;;;4993267;28;20098;-86
2023/04/08 07:08:01;;;;;;;29.33;19.70;;;6.00;99.90;;;;;;5006873;28;20156;-87
2023/04/08 07:10:27;;;;;;;28.90;19.93;;;6.00;99.90;;;;;;5013924;28;20041;-87
2023/04/08 07:12:53;;;;;;;30.37;19.97;;;6.10;99.90;;;;;;4986979;28;20510;-87
2023/04/08 07:15:19;;;;;;;27.83;18.87;;;6.20;99.90;;;;;;5001279;28;20037;-86
2023/04/08 07:17:45;;;;;;;30.57;20.23;;;6.30;99.90;;;;;;4954577;28;20045;-87
2023/04/08 07:20:12;;;;;;;28.50;19.30;;;6.40;99.90;;;;;;4999409;28;20046;-87
2023/04/08 07:22:38;;;;;;;29.80;20.30;;;6.50;99.90;;;;;;4995167;28;20049;-87
2023/04/08 07:25:05;;;;;;;29.03;19.43;;;6.50;99.90;;;;;;4997534;28;20056;-88
2023/04/08 07:27:32;;;;;;;27.70;18.27;;;6.60;99.90;;;;;;5013715;28;20073;-88
2023/04/08 07:29:58;;;;;;;28.80;19.37;;;6.60;99.90;;;;;;4982477;28;20044;-87
2023/04/08 07:32:23;;;;;;;28.80;19.37;;;6.60;99.90;;;;;;5005611;28;20041;-87
2023/04/08 07:34:49;;;;;;;26.73;18.23;;;6.60;99.90;;;;;;5012625;28;20029;-87
2023/04/08 07:37:16;;;;;;;29.70;18.83;;;6.70;99.90;;;;;;4985213;28;20091;-87
2023/04/08 07:39:42;;;;;;;25.60;18.10;;;6.80;99.90;;;;;;5004157;28;20080;-88
2023/04/08 07:42:08;;;;;;;27.87;19.13;;;6.90;99.90;;;;;;5001803;28;20079;-88
2023/04/08 07:44:34;;;;;;;30.83;20.47;;;7.00;99.90;;;;;;5002135;28;20052;-86
2023/04/08 07:46:59;;;;;;;31.00;20.30;;;7.00;99.90;;;;;;5008077;28;20127;-87
2023/04/08 07:49:25;;;;;;;29.40;19.33;;;7.10;99.90;;;;;;4969489;28;20178;-88
2023/04/08 07:51:51;;;;;;;28.23;18.93;;;7.10;99.90;;;;;;4984102;28;20132;-88
2023/04/08 07:54:18;;;;;;;27.97;18.30;;;7.10;99.90;;;;;;4990787;28;20159;-86
2023/04/08 07:56:44;;;;;;;25.70;18.50;;;6.90;99.90;;;;;;4990799;28;20037;-87
2023/04/08 07:59:10;;;;;;;27.37;18.77;;;6.80;99.90;;;;;;5008650;28;20405;-87
2023/04/08 08:01:36;;;;;;;28.30;19.83;;;6.80;99.90;;;;;;4990938;28;20041;-87
2023/04/08 08:04:02;;;;;;;26.63;18.30;;;6.90;99.90;;;;;;4995208;28;20099;-87
2023/04/08 08:06:28;;;;;;;26.93;18.77;;;6.90;99.90;;;;;;4976235;28;20501;-87
2023/04/08 08:08:54;;;;;;;28.07;18.30;;;6.90;99.90;;;;;;4994790;28;20044;-86
2023/04/08 08:11:23;;;;;;;28.93;18.43;;;7.00;99.90;;;;;;4984678;28;20132;-87
2023/04/08 08:13:48;;;;;;;27.47;17.90;;;7.10;99.90;;;;;;4984220;28;20037;-87
2023/04/08 08:16:14;;;;;;;27.63;19.10;;;7.30;99.90;;;;;;4969836;28;20041;-87
2023/04/08 08:18:40;;;;;;;27.17;18.80;;;7.20;99.90;;;;;;5011476;28;20509;-86
2023/04/08 08:21:07;;;;;;;26.07;18.33;;;7.20;99.90;;;;;;4998410;28;20038;-87
2023/04/08 08:23:33;;;;;;;26.80;18.33;;;7.20;99.90;;;;;;4966950;28;20045;-85
2023/04/08 08:26:03;;;;;;;29.33;19.37;;;7.30;99.90;;;;;;4986755;28;20046;-86
2023/04/08 08:28:29;;;;;;;27.93;19.23;;;7.40;99.90;;;;;;5004967;28;20128;-87
2023/04/08 08:30:55;;;;;;;26.63;18.60;;;7.60;99.90;;;;;;4999123;28;20132;-86
2023/04/08 08:33:21;;;;;;;26.80;18.77;;;7.60;99.90;;;;;;4987444;28;20429;-87
2023/04/08 08:35:46;;;;;;;26.47;19.00;;;7.50;99.90;;;;;;5000872;28;20404;-87
2023/04/08 08:38:12;;;;;;;27.07;18.43;;;7.40;99.90;;;;;;5000090;28;20045;-84
2023/04/08 08:40:38;;;;;;;30.63;19.80;;;7.30;99.90;;;;;;5015183;28;20087;-86
2023/04/08 08:43:04;;;;;;;29.37;19.87;;;7.40;99.90;;;;;;4991076;28;20080;-86
2023/04/08 08:45:32;;;;;;;27.60;19.87;;;7.50;99.90;;;;;;5012722;28;20565;-87
2023/04/08 08:47:57;;;;;;;28.83;20.43;;;7.70;99.90;;;;;;5015034;28;20048;-87
2023/04/08 08:50:23;;;;;;;29.43;20.00;;;7.70;99.90;;;;;;4983392;28;20128;-86
2023/04/08 08:52:50;;;;;;;26.00;18.67;;;7.80;99.90;;;;;;5015085;28;20045;-85
2023/04/08 08:55:20;;;;;;;26.63;18.03;;;7.70;99.90;;;;;;4981227;28;20394;-86
2023/04/08 08:57:50;;;;;;;26.43;18.07;;;7.70;99.90;;;;;;4999223;28;20045;-87
2023/04/08 09:00:16;;;;;;;25.50;17.50;;;7.50;99.90;;;;;;5015598;28;20435;-86
2023/04/08 09:02:42;;;;;;;25.50;18.23;;;7.40;99.90;;;;;;4995680;28;20050;-86
2023/04/08 09:05:08;;;;;;;25.50;17.77;;;7.50;99.90;;;;;;4968329;28;20091;-84
2023/04/08 09:07:40;;;;;;;26.30;18.93;;;7.50;99.90;;;;;;4999129;28;20052;-85
2023/04/08 09:10:07;;;;;;;27.40;19.07;;;7.50;99.90;;;;;;4998987;28;20595;-84
2023/04/08 09:12:32;;;;;;;25.80;18.60;;;7.50;99.90;;;;;;4996621;28;20049;-86
2023/04/08 09:15:09;;;;;;;25.53;18.23;;;7.50;99.90;;;;;;4983180;28;20033;-85
2023/04/08 09:17:40;;;;;;;25.47;17.77;;;7.60;99.90;;;;;;4995129;28;20073;-84
2023/04/08 09:20:10;;;;;;;25.20;17.73;;;7.70;99.90;;;;;;4997645;28;20046;-85
2023/04/08 09:22:59;;;;;;;23.87;17.07;;;7.70;99.90;;;;;;4995679;28;20041;-85
2023/04/08 09:25:33;;;;;;;23.03;16.87;;;7.70;99.90;;;;;;4975512;28;20481;-84
2023/04/08 09:28:00;;;;;;;25.10;16.50;;;7.70;99.90;;;;;;4998457;28;20741;-85
2023/04/08 09:30:27;;;;;;;24.70;16.93;;;7.70;99.90;;;;;;5007117;28;20516;-85
2023/04/08 09:32:54;;;;;;;21.60;15.60;;;7.70;99.90;;;;;;5013639;28;20099;-84
2023/04/08 09:35:20;;;;;;;19.40;13.87;;;7.70;99.90;;;;;;5014468;28;20048;-83
2023/04/08 09:37:46;;;;;;;22.63;15.70;;;7.60;99.90;;;;;;5011979;28;20040;-84
2023/04/08 09:40:15;;;;;;;22.03;15.47;;;7.70;99.90;;;;;;4998189;28;20045;-84
2023/04/08 09:42:44;;;;;;;23.73;15.17;;;7.70;99.90;;;;;;5011057;28;20038;-86
2023/04/08 09:45:11;;;;;;;22.07;15.37;;;7.60;99.90;;;;;;4996274;28;20389;-84
2023/04/08 09:48:11;;;;;;;25.93;16.17;;;7.60;99.90;;;;;;5020081;28;20147;-84
2023/04/08 09:50:42;;;;;;;26.00;17.03;;;7.60;99.90;;;;;;5003646;28;20057;-85
2023/04/08 09:53:45;;;;;;;24.17;15.40;;;7.50;99.90;;;;;;4998595;28;20504;-85
2023/04/08 09:56:15;;;;;;;24.53;16.93;;;7.50;99.90;;;;;;4954975;28;20053;-85
2023/04/08 09:59:06;;;;;;;23.37;15.80;;;7.60;99.90;;;;;;5013559;28;20407;-85
2023/04/08 10:01:38;;;;;;;22.58;15.55;;;7.70;99.90;;;;;;5003923;28;20134;-85
2023/04/08 10:04:08;;;;;;;21.95;15.32;;;7.70;99.90;;;;;;4997897;28;20436;-84
2023/04/08 10:06:36;;;;;;;23.10;14.83;;;7.70;99.90;;;;;;4995461;28;20063;-84
2023/04/08 10:09:03;;;;;;;22.90;16.20;;;7.80;99.90;;;;;;5028333;28;20048;-85
2023/04/08 10:11:29;;;;;;;22.80;15.77;;;7.90;99.90;;;;;;5014476;28;20051;-84
2023/04/08 10:13:55;;;;;;;22.30;15.00;;;8.00;99.90;;;;;;4981458;28;20048;-84
2023/04/08 10:16:24;;;;;;;21.13;15.20;;;8.00;99.90;;;;;;4996451;28;20038;-83
2023/04/08 10:18:54;;;;;;;19.63;13.70;;;8.00;99.90;;;;;;5013000;28;20033;-84
2023/04/08 10:21:47;;;;;;;20.30;13.90;;;8.00;99.90;;;;;;4998944;28;20084;-85
2023/04/08 10:24:13;;;;;;;23.90;15.77;;;8.10;99.90;;;;;;5009511;28;20057;-85
2023/04/08 10:26:43;;;;;;;23.03;15.23;;;8.20;99.90;;;;;;4999182;28;20086;-84
2023/04/08 10:29:18;;;;;;;24.57;15.80;;;8.20;99.90;;;;;;5013940;28;20055;-85
2023/04/08 10:31:51;;;;;;;23.13;14.63;;;8.20;99.90;;;;;;5006812;28;20456;-85
2023/04/08 10:34:25;;;;;;;21.97;13.47;;;8.30;99.90;;;;;;5014103;28;20033;-85
2023/04/08 10:36:53;;;;;;;20.53;13.83;;;8.40;99.90;;;;;;5012793;28;20119;-84
2023/04/08 10:39:19;;;;;;;20.77;14.70;;;8.40;99.90;;;;;;4998395;28;20244;-85
2023/04/08 10:41:46;;;;;;;20.70;15.23;;;8.40;99.90;;;;;;4992334;28;20404;-86
2023/04/08 10:44:20;;;;;;;20.27;14.23;;;8.40;99.90;;;;;;4995040;28;20076;-86
2023/04/08 10:46:47;;;;;;;21.20;14.67;;;8.40;99.90;;;;;;4989950;28;20191;-84
2023/04/08 10:49:16;;;;;;;23.60;15.80;;;8.40;99.90;;;;;;5013893;28;20052;-84
2023/04/08 10:51:43;;;;;;;20.03;14.03;;;8.60;99.90;;;;;;4997515;28;20042;-85
2023/04/08 10:54:17;;;;;;;20.37;15.17;;;8.60;99.90;;;;;;5012935;28;20124;-84
2023/04/08 10:56:45;;;;;;;22.27;14.53;;;8.70;99.90;;;;;;5012274;28;20049;-85
2023/04/08 10:59:12;;;;;;;20.87;14.47;;;8.70;99.90;;;;;;4980351;28;20038;-84
2023/04/08 11:01:43;;;;;;;21.53;14.73;;;8.60;99.90;;;;;;4997772;28;20130;-84
2023/04/08 11:04:18;;;;;;;22.60;15.20;;;8.60;99.90;;;;;;4977969;28;20048;-85
2023/04/08 11:06:45;;;;;;;24.87;15.43;;;8.50;99.90;;;;;;4990604;28;20055;-84
2023/04/08 11:09:12;;;;;;;21.83;15.23;;;8.60;99.90;;;;;;4997299;28;20049;-85
2023/04/08 11:11:40;;;;;;;23.43;15.17;;;8.70;99.90;;;;;;5014747;28;20045;-85
2023/04/08 11:14:06;;;;;;;20.67;14.00;;;8.80;99.90;;;;;;5001055;28;20064;-84
2023/04/08 11:16:33;;;;;;;23.20;15.50;;;8.90;99.90;;;;;;4978103;28;20038;-85
2023/04/08 11:19:02;;;;;;;25.17;16.43;;;8.90;99.90;;;;;;4985910;28;20103;-86
2023/04/08 11:21:29;;;;;;;24.10;16.10;;;8.70;99.90;;;;;;5004905;28;20472;-85
2023/04/08 11:23:55;;;;;;;26.43;16.40;;;8.70;99.90;;;;;;4979957;28;20124;-85
2023/04/08 11:26:21;;;;;;;26.10;16.77;;;8.70;99.90;;;;;;5005908;28;20137;-86
2023/04/08 11:28:50;;;;;;;26.87;16.67;;;8.70;99.90;;;;;;5001366;28;20029;-85
2023/04/08 11:31:20;;;;;;;28.17;17.80;;;8.80;99.90;;;;;;5012149;28;20045;-85
2023/04/08 11:33:50;;;;;;;23.27;16.70;;;8.80;99.90;;;;;;5008534;28;20041;-85
2023/04/08 11:36:20;;;;;;;26.00;17.10;;;8.80;99.90;;;;;;5016865;28;20046;-86
2023/04/08 11:38:46;;;;;;;28.13;17.83;;;8.80;99.90;;;;;;5001405;28;20059;-84
2023/04/08 11:41:13;;;;;;;28.33;18.07;;;8.80;99.90;;;;;;5001019;28;20045;-85
2023/04/08 11:43:41;;;;;;;28.73;17.33;;;8.90;99.90;;;;;;5016616;28;20084;-85
2023/04/08 11:46:11;;;;;;;26.67;16.83;;;9.00;99.90;;;;;;5012219;28;20048;-85
2023/04/08 11:48:40;;;;;;;28.80;18.43;;;9.00;99.90;;;;;;4997439;28;20081;-85
2023/04/08 11:51:11;;;;;;;29.70;18.33;;;9.00;99.90;;;;;;5001231;28;20631;-85
2023/04/08 11:53:37;;;;;;;27.70;18.23;;;9.10;99.90;;;;;;5007940;28;20053;-85
2023/04/08 11:56:20;;;;;;;28.70;17.23;;;9.00;99.90;;;;;;4985619;28;20414;-85
2023/04/08 11:58:46;;;;;;;27.13;17.70;;;9.10;99.90;;;;;;4989838;28;20516;-85
2023/04/08 12:01:12;;;;;;;31.43;19.80;;;9.20;99.90;;;;;;4982133;28;20045;-85
2023/04/08 12:03:38;;;;;;;30.20;19.00;;;9.10;99.90;;;;;;5009066;28;20041;-86
2023/04/08 12:06:06;;;;;;;32.77;20.17;;;9.00;99.90;;;;;;5007595;28;20037;-86
2023/04/08 12:08:32;;;;;;;30.67;19.53;;;9.00;99.90;;;;;;5003921;28;20111;-84
2023/04/08 12:10:57;;;;;;;33.20;20.97;;;9.00;99.90;;;;;;5014081;28;20041;-85
2023/04/08 12:13:23;;;;;;;34.63;21.03;;;8.90;99.90;;;;;;5003815;28;20493;-85
2023/04/08 12:15:49;;;;;;;36.87;21.00;;;8.90;99.90;;;;;;4992738;28;20053;-85
2023/04/08 12:18:15;;;;;;;31.73;21.13;;;8.90;99.90;;;;;;4983345;28;20046;-85
2023/04/08 12:20:41;;;;;;;37.73;23.17;;;9.00;99.90;;;;;;4983197;28;20076;-84
2023/04/08 12:23:07;;;;;;;43.17;25.23;;;9.00;99.90;;;;;;4998371;28;20068;-84
2023/04/08 12:25:32;;;;;;;41.57;25.03;;;9.10;99.90;;;;;;5000021;28;20045;-83
2023/04/08 12:27:58;;;;;;;39.27;23.50;;;9.10;99.90;;;;;;5009817;28;20038;-84
2023/04/08 12:30:24;;;;;;;40.40;24.60;;;9.20;99.90;;;;;;4994584;28;20041;-83
2023/04/08 12:32:49;;;;;;;41.97;25.03;;;9.20;99.90;;;;;;5014913;28;20397;-83
2023/04/08 12:35:15;;;;;;;43.93;25.93;;;9.20;99.90;;;;;;4984226;28;20121;-84
2023/04/08 12:37:41;;;;;;;44.90;26.27;;;9.20;99.90;;;;;;5003311;28;20192;-83
2023/04/08 12:40:07;;;;;;;42.90;27.03;;;9.20;99.90;;;;;;5000864;28;20045;-83